Bayesian — 2ICB8 — position and weather

sailwx.info

Track history (hours):
 
Tides and Currents Weather Stations Pressure Air Temp Water Temp Dewpoint Dewpoint Depression Visibility Wind Speed Wind Dir Waves Ship Positions

Bayesian

Last reported at 2018-May-22 19:30 UTC. Time now 2018-May-22 19:52 UTC.
Position N 39°06' E 003°01'.

Length 56 m; draft 4 m.

Type: Pleasure craft. MMSI: 235108471.

Date/timePositionNaut miles runAvg speedWind from/ knotsBaromVisibWave heightAir tempDewpointWater temp
2018-May-22 19:30N 39°06' E 003°01'5 9.6
2018-May-22 19:00N 39°06' E 002°55'5 9.1
2018-May-22 18:30N 39°09' E 002°51'5 9.8
2018-May-22 18:00N 39°14' E 002°48'5 9.9
2018-May-22 17:30N 39°18' E 002°45'5 9.7
2018-May-22 17:00N 39°22' E 002°42'5 9.7
2018-May-22 16:30N 39°27' E 002°39'5 9.4
2018-May-22 15:58N 39°31' E 002°37'1 1.1
2018-May-22 15:30N 39°31' E 002°36'1 2.3
2018-May-22 14:59N 39°32' E 002°37'2 3.6
2018-May-22 14:30N 39°33' E 002°39'1 1.7
2018-May-22 14:00N 39°34' E 002°38'0 0.0
2018-May-22 13:30N 39°34' E 002°38'0 0.0
2018-May-22 13:00N 39°34' E 002°38'0 0.0
2018-May-22 12:30N 39°34' E 002°38'0 0.0
2018-May-22 12:00N 39°34' E 002°38'0 0.0
2018-May-22 11:30N 39°34' E 002°38'0 0.0
2018-May-22 10:54N 39°34' E 002°38'0 0.0
2018-May-22 10:30N 39°34' E 002°38'0 0.0
2018-May-22 10:00N 39°34' E 002°38'0 0.0
2018-May-22 09:30N 39°34' E 002°38'0 0.0
2018-May-22 09:00N 39°34' E 002°38'0 0.0
2018-May-22 08:30N 39°34' E 002°38'0 0.0
2018-May-22 08:00N 39°34' E 002°38'0 0.0
2018-May-22 07:30N 39°34' E 002°38'0 0.0
2018-May-22 07:00N 39°34' E 002°38'0 0.0
2018-May-22 06:30N 39°34' E 002°38'0 0.0
2018-May-22 06:00N 39°34' E 002°38'0 0.0
2018-May-22 05:30N 39°34' E 002°38'0 0.0
2018-May-22 05:00N 39°34' E 002°38'0 0.0
2018-May-22 04:30N 39°34' E 002°38'0 0.0
2018-May-22 04:00N 39°34' E 002°38'0 0.0
2018-May-22 03:30N 39°34' E 002°38'0 0.0
2018-May-22 03:00N 39°34' E 002°38'0 0.0
2018-May-22 02:30N 39°34' E 002°38'0 0.0
2018-May-22 02:00N 39°34' E 002°38'0 0.0
2018-May-22 01:30N 39°34' E 002°38'0 0.0
2018-May-22 01:00N 39°34' E 002°38'0 0.0
2018-May-22 00:30N 39°34' E 002°38'0 0.0
2018-May-22 00:00N 39°34' E 002°38'0 0.0
2018-May-21 23:30N 39°34' E 002°38'0 0.0
2018-May-21 23:00N 39°34' E 002°38'0 0.0
2018-May-21 22:30N 39°34' E 002°38'0 0.0
2018-May-21 22:00N 39°34' E 002°38'0 0.0
2018-May-21 21:30N 39°34' E 002°38'0 0.0
2018-May-21 21:00N 39°34' E 002°38'0 0.0
2018-May-21 20:30N 39°34' E 002°38'0 0.0
2018-May-21 20:00N 39°34' E 002°38'0 0.0
2018-May-21 19:30N 39°34' E 002°38'0 0.0
2018-May-21 19:00N 39°34' E 002°38'0 0.0
2018-May-21 18:30N 39°34' E 002°38'0 0.0
2018-May-21 18:00N 39°34' E 002°38'0 0.0
2018-May-21 17:30N 39°34' E 002°38'0 0.0
2018-May-21 17:00N 39°34' E 002°38'0 0.0
2018-May-21 16:30N 39°34' E 002°38'0 0.0
2018-May-21 16:00N 39°34' E 002°38'0 0.0
2018-May-21 15:30N 39°34' E 002°38'0 0.0
2018-May-21 15:00N 39°34' E 002°38'0 0.0
2018-May-21 14:30N 39°34' E 002°38'0 0.0
2018-May-21 14:00N 39°34' E 002°38'0 0.0
2018-May-21 13:30N 39°34' E 002°38'0 0.0
2018-May-21 13:00N 39°34' E 002°38'0 0.0
2018-May-21 12:30N 39°34' E 002°38'0 0.0
2018-May-21 12:00N 39°34' E 002°38'0 0.0
2018-May-21 11:30N 39°34' E 002°38'0 0.0
2018-May-21 11:00N 39°34' E 002°38'0 0.0
2018-May-21 10:30N 39°34' E 002°38'0 0.0
2018-May-21 10:00N 39°34' E 002°38'0 0.0
2018-May-21 09:30N 39°34' E 002°38'0 0.0
2018-May-21 09:00N 39°34' E 002°38'0 0.0
2018-May-21 08:30N 39°34' E 002°38'0 0.0
2018-May-21 08:00N 39°34' E 002°38'0 0.0
2018-May-21 07:30N 39°34' E 002°38'0 0.0
2018-May-21 07:00N 39°34' E 002°38'0 0.0
2018-May-21 06:30N 39°34' E 002°38'0 0.0
2018-May-21 06:00N 39°34' E 002°38'0 0.0
2018-May-21 05:30N 39°34' E 002°38'0 0.0
2018-May-21 05:00N 39°34' E 002°38'0 0.0
2018-May-21 04:30N 39°34' E 002°38'0 0.0
2018-May-21 04:00N 39°34' E 002°38'0 0.0
2018-May-21 03:30N 39°34' E 002°38'0 0.0
2018-May-21 03:00N 39°34' E 002°38'0 0.0
2018-May-21 02:30N 39°34' E 002°38'0 0.0
2018-May-21 02:00N 39°34' E 002°38'0 0.0
2018-May-21 01:30N 39°34' E 002°38'0 0.0
2018-May-21 01:00N 39°34' E 002°38'0 0.0
2018-May-21 00:30N 39°34' E 002°38'0 0.0
2018-May-21 00:00N 39°34' E 002°38'0 0.0
2018-May-20 23:30N 39°34' E 002°38'0 0.0
2018-May-20 23:00N 39°34' E 002°38'0 0.0
2018-May-20 22:30N 39°34' E 002°38'0 0.0
2018-May-20 22:00N 39°34' E 002°38'0 0.0
2018-May-20 21:30N 39°34' E 002°38'0 0.0
2018-May-20 21:00N 39°34' E 002°38'0 0.0
2018-May-20 20:30N 39°34' E 002°38'0 0.0
2018-May-20 20:00N 39°34' E 002°38'0 0.0
2018-May-20 19:30N 39°34' E 002°38'0 0.0
2018-May-20 19:00N 39°34' E 002°38'0 0.0
2018-May-20 18:30N 39°34' E 002°38'0 0.0
2018-May-20 18:00N 39°34' E 002°38'0 0.0
2018-May-20 17:30N 39°34' E 002°38'0 0.0
2018-May-20 17:00N 39°34' E 002°38'0 0.0
2018-May-20 16:30N 39°34' E 002°38'0 0.0
2018-May-20 16:00N 39°34' E 002°38'0 0.0
2018-May-20 15:30N 39°34' E 002°38'0 0.0
2018-May-20 15:00N 39°34' E 002°38'0 0.0
2018-May-20 14:30N 39°34' E 002°38'0 0.0
2018-May-20 14:00N 39°34' E 002°38'0 0.0
2018-May-20 13:30N 39°34' E 002°38'0 0.0
2018-May-20 13:00N 39°34' E 002°38'0 0.0
2018-May-20 12:30N 39°34' E 002°38'0 0.0
2018-May-20 12:00N 39°34' E 002°38'0 0.0
2018-May-20 11:30N 39°34' E 002°38'0 0.0
2018-May-20 11:00N 39°34' E 002°38'0 0.0
2018-May-20 10:30N 39°34' E 002°38'0 0.0
2018-May-20 10:00N 39°34' E 002°38'0 0.0
2018-May-20 09:30N 39°34' E 002°38'0 0.0
2018-May-20 09:00N 39°34' E 002°38'0 0.0
2018-May-20 08:30N 39°34' E 002°38'0 0.0
2018-May-20 08:00N 39°34' E 002°38'0 0.0
2018-May-20 07:30N 39°34' E 002°38'0 0.0
2018-May-20 07:00N 39°34' E 002°38'0 0.0
2018-May-20 06:27N 39°34' E 002°38'0 0.0
2018-May-20 06:00N 39°34' E 002°38'0 0.0
2018-May-20 05:30N 39°34' E 002°38'0 0.0
2018-May-20 05:00N 39°34' E 002°38'0 0.0
2018-May-20 04:30N 39°34' E 002°38'0 0.0
2018-May-20 04:00N 39°34' E 002°38'0 0.0
2018-May-20 03:30N 39°34' E 002°38'0 0.0
2018-May-20 03:00N 39°34' E 002°38'0 0.0
2018-May-20 02:30N 39°34' E 002°38'0 0.0
2018-May-20 02:00N 39°34' E 002°38'0 0.0
2018-May-20 01:30N 39°34' E 002°38'0 0.0
2018-May-20 01:00N 39°34' E 002°38'0 0.0
2018-May-20 00:30N 39°34' E 002°38'0 0.0
2018-May-20 00:00N 39°34' E 002°38'0 0.0
2018-May-19 23:30N 39°34' E 002°38'0 0.0
2018-May-19 23:00N 39°34' E 002°38'0 0.0
2018-May-19 22:30N 39°34' E 002°38'0 0.0
2018-May-19 22:00N 39°34' E 002°38'0 0.0
2018-May-19 21:30N 39°34' E 002°38'0 0.0
2018-May-19 21:00N 39°34' E 002°38'0 0.0
2018-May-19 20:30N 39°34' E 002°38'0 0.0
2018-May-19 20:00N 39°34' E 002°38'0 0.0
2018-May-19 19:30N 39°34' E 002°38'0 0.0
2018-May-19 19:00N 39°34' E 002°38'0 0.0
2018-May-19 18:30N 39°34' E 002°38'0 0.0
2018-May-19 18:00N 39°34' E 002°38'0 0.0
2018-May-19 17:30N 39°34' E 002°38'0 0.0
2018-May-19 17:00N 39°34' E 002°38'0 0.0
2018-May-19 16:30N 39°34' E 002°38'0 0.0
2018-May-19 16:00N 39°34' E 002°38'0 0.0
2018-May-19 15:30N 39°34' E 002°38'0 0.0
2018-May-19 15:00N 39°34' E 002°38'0 0.0
2018-May-19 14:30N 39°34' E 002°38'0 0.0
2018-May-19 14:00N 39°34' E 002°38'0 0.0
2018-May-19 13:30N 39°34' E 002°38'0 0.0
2018-May-19 13:00N 39°34' E 002°38'0 0.0
2018-May-19 12:30N 39°34' E 002°38'0 0.0
2018-May-19 12:00N 39°34' E 002°38'0 0.0
2018-May-19 11:30N 39°34' E 002°38'0 0.0
2018-May-19 11:00N 39°34' E 002°38'0 0.0
2018-May-19 10:30N 39°34' E 002°38'0 0.0
2018-May-19 10:00N 39°34' E 002°38'0 0.0
2018-May-19 09:30N 39°34' E 002°38'0 0.0
2018-May-19 09:00N 39°34' E 002°38'0 0.0
2018-May-19 08:30N 39°34' E 002°38'0 0.0
2018-May-19 08:00N 39°34' E 002°38'0 0.0
2018-May-19 07:30N 39°34' E 002°38'0 0.0
2018-May-19 07:00N 39°34' E 002°38'0 0.0
2018-May-19 06:30N 39°34' E 002°38'0 0.0
2018-May-19 05:57N 39°34' E 002°38'0 0.0
2018-May-19 05:30N 39°34' E 002°38'0 0.0
2018-May-19 04:57N 39°34' E 002°38'0 0.0
2018-May-19 04:30N 39°34' E 002°38'0 0.0
2018-May-19 04:00N 39°34' E 002°38'0 0.0
2018-May-19 03:30N 39°34' E 002°38'0 0.0
2018-May-19 03:00N 39°34' E 002°38'0 0.0
2018-May-19 02:30N 39°34' E 002°38'0 0.0
2018-May-19 02:00N 39°34' E 002°38'0 0.0
2018-May-19 01:30N 39°34' E 002°38'0 0.0
2018-May-19 01:00N 39°34' E 002°38'0 0.0
2018-May-19 00:30N 39°34' E 002°38'0 0.0
2018-May-19 00:00N 39°34' E 002°38'0 0.0
2018-May-18 23:30N 39°34' E 002°38'0 0.0
2018-May-18 23:00N 39°34' E 002°38'0 0.0
2018-May-18 22:30N 39°34' E 002°38'0 0.0
2018-May-18 22:00N 39°34' E 002°38'0 0.0
2018-May-18 21:30N 39°34' E 002°38'0 0.0
2018-May-18 21:00N 39°34' E 002°38'0 0.0
2018-May-18 20:30N 39°34' E 002°38'0 0.0
2018-May-18 20:00N 39°34' E 002°38'0 0.0
2018-May-18 19:30N 39°34' E 002°38'0 0.0
2018-May-18 19:00N 39°34' E 002°38'0 0.0
2018-May-18 18:30N 39°34' E 002°38'0 0.0
2018-May-18 18:00N 39°34' E 002°38'0 0.0
2018-May-18 17:30N 39°34' E 002°38'0 0.0
2018-May-18 17:00N 39°34' E 002°38'0 0.0
2018-May-18 16:30N 39°34' E 002°38'0 0.0
2018-May-18 16:00N 39°34' E 002°38'0 0.0
2018-May-18 15:30N 39°34' E 002°38'0 0.0
2018-May-18 15:00N 39°34' E 002°38'0 0.0
2018-May-18 14:30N 39°34' E 002°38'0 0.0
2018-May-18 14:00N 39°34' E 002°38'0 0.0
2018-May-18 13:30N 39°34' E 002°38'0 0.0
2018-May-18 13:00N 39°34' E 002°38'0 0.0
2018-May-18 12:27N 39°34' E 002°38'0 0.0
2018-May-18 12:00N 39°34' E 002°38'0 0.0
2018-May-18 11:30N 39°34' E 002°38'0 0.0
2018-May-18 11:00N 39°34' E 002°38'0 0.0
2018-May-18 10:30N 39°34' E 002°38'0 0.0
2018-May-18 10:00N 39°34' E 002°38'0 0.0
2018-May-18 09:30N 39°34' E 002°38'0 0.0
2018-May-18 09:00N 39°34' E 002°38'0 0.0
2018-May-18 08:30N 39°34' E 002°38'0 0.0
2018-May-18 08:00N 39°34' E 002°38'0 0.0
2018-May-18 07:30N 39°34' E 002°38'0 0.0
2018-May-18 07:00N 39°34' E 002°38'0 0.0
2018-May-18 06:30N 39°34' E 002°38'0 0.0
2018-May-18 06:00N 39°34' E 002°38'0 0.0
2018-May-18 05:30N 39°34' E 002°38'0 0.0
2018-May-18 05:00N 39°34' E 002°38'0 0.0
2018-May-18 04:30N 39°34' E 002°38'0 0.0
2018-May-18 04:00N 39°34' E 002°38'0 0.0
2018-May-18 03:30N 39°34' E 002°38'0 0.0
2018-May-18 03:00N 39°34' E 002°38'0 0.0
2018-May-18 02:30N 39°34' E 002°38'0 0.0
2018-May-18 02:00N 39°34' E 002°38'0 0.0
2018-May-18 01:30N 39°34' E 002°38'0 0.0
2018-May-18 01:00N 39°34' E 002°38'0 0.0
2018-May-18 00:30N 39°34' E 002°38'0 0.0
2018-May-18 00:00N 39°34' E 002°38'0 0.0
2018-May-17 23:30N 39°34' E 002°38'0 0.0
2018-May-17 23:00N 39°34' E 002°38'0 0.0
2018-May-17 22:30N 39°34' E 002°38'0 0.0
2018-May-17 22:00N 39°34' E 002°38'0 0.0
2018-May-17 21:30N 39°34' E 002°38'0 0.0
2018-May-17 21:00N 39°34' E 002°38'0 0.0
2018-May-17 20:27N 39°34' E 002°38'0 0.0
2018-May-17 20:00N 39°34' E 002°38'0 0.0
2018-May-17 19:30N 39°34' E 002°38'0 0.0
2018-May-17 19:00N 39°34' E 002°38'0 0.0
2018-May-17 18:30N 39°34' E 002°38'0 0.0
2018-May-17 18:00N 39°34' E 002°38'0 0.0
2018-May-17 17:30N 39°34' E 002°38'0 0.0
2018-May-17 17:00N 39°34' E 002°38'0 0.0
2018-May-17 16:27N 39°34' E 002°38'0 0.0
2018-May-17 16:00N 39°34' E 002°38'0 0.0
2018-May-17 15:27N 39°34' E 002°38'0 0.0
2018-May-17 15:00N 39°34' E 002°38'0 0.0
2018-May-17 14:30N 39°34' E 002°38'0 0.0
2018-May-17 14:00N 39°34' E 002°38'0 0.0
2018-May-17 13:30N 39°34' E 002°38'0 0.0
2018-May-17 13:00N 39°34' E 002°38'0 0.0
2018-May-17 12:30N 39°34' E 002°38'0 0.0
2018-May-17 12:00N 39°34' E 002°38'0 0.0
2018-May-17 11:30N 39°34' E 002°38'0 0.0
2018-May-17 11:00N 39°34' E 002°38'0 0.0
2018-May-17 10:27N 39°34' E 002°38'0 0.0
2018-May-17 10:00N 39°34' E 002°38'0 0.0
2018-May-17 09:30N 39°34' E 002°38'0 0.0
2018-May-17 09:00N 39°34' E 002°38'0 0.0
2018-May-17 08:30N 39°34' E 002°38'0 0.0
2018-May-17 08:00N 39°34' E 002°38'0 0.0
2018-May-17 07:30N 39°34' E 002°38'0 0.0
2018-May-17 07:00N 39°34' E 002°38'0 0.0
2018-May-17 06:30N 39°34' E 002°38'0 0.0
2018-May-17 06:00N 39°34' E 002°38'0 0.0
2018-May-17 05:30N 39°34' E 002°38'0 0.0
2018-May-17 05:00N 39°34' E 002°38'0 0.0
2018-May-17 04:30N 39°34' E 002°38'0 0.0
2018-May-17 04:00N 39°34' E 002°38'0 0.0
2018-May-17 03:27N 39°34' E 002°38'0 0.0
2018-May-17 03:00N 39°34' E 002°38'0 0.0
2018-May-17 02:30N 39°34' E 002°38'0 0.0
2018-May-17 02:00N 39°34' E 002°38'0 0.0
2018-May-17 01:30N 39°34' E 002°38'0 0.0
2018-May-17 01:00N 39°34' E 002°38'0 0.0
2018-May-17 00:27N 39°34' E 002°38'0 0.0
2018-May-17 00:00N 39°34' E 002°38'0 0.0
2018-May-16 23:30N 39°34' E 002°38'0 0.0
2018-May-16 23:00N 39°34' E 002°38'0 0.0
2018-May-16 22:30N 39°34' E 002°38'0 0.0
2018-May-16 22:00N 39°34' E 002°38'0 0.0
2018-May-16 21:30N 39°34' E 002°38'0 0.0
2018-May-16 21:00N 39°34' E 002°38'0 0.0
2018-May-16 20:30N 39°34' E 002°38'0 0.0
2018-May-16 19:51N 39°34' E 002°38'0 0.0
2018-May-16 19:30N 39°34' E 002°38'0 0.0
2018-May-16 19:00N 39°34' E 002°38'0 0.0
2018-May-16 18:30N 39°34' E 002°38'0 0.0
2018-May-16 18:00N 39°34' E 002°38'0 0.0
2018-May-16 17:30N 39°34' E 002°38'0 0.0
2018-May-16 17:00N 39°34' E 002°38'0 0.0
2018-May-16 16:30N 39°34' E 002°38'0 0.0
2018-May-16 15:57N 39°34' E 002°38'0 0.0
2018-May-16 15:30N 39°34' E 002°38'0 0.0
2018-May-16 15:00N 39°34' E 002°38'0 0.0
2018-May-16 14:30N 39°34' E 002°38'0 0.0
2018-May-16 14:00N 39°34' E 002°38'0 0.0
2018-May-16 13:30N 39°34' E 002°38'0 0.0
2018-May-16 13:00N 39°34' E 002°38'0 0.0
2018-May-16 12:30N 39°34' E 002°38'0 0.0
2018-May-16 12:00N 39°34' E 002°38'0 0.0
2018-May-16 11:30N 39°34' E 002°38'0 0.0
2018-May-16 11:00N 39°34' E 002°38'0 0.0
2018-May-16 10:30N 39°34' E 002°38'0 0.0
2018-May-16 10:00N 39°34' E 002°38'0 0.0
2018-May-16 09:30N 39°34' E 002°38'0 0.0
2018-May-16 09:00N 39°34' E 002°38'0 0.0
2018-May-16 08:30N 39°34' E 002°38'0 0.0
2018-May-16 08:00N 39°34' E 002°38'0 0.0
2018-May-16 07:30N 39°34' E 002°38'0 0.0
2018-May-16 07:00N 39°34' E 002°38'0 0.0
2018-May-16 06:30N 39°34' E 002°38'0 0.0
2018-May-16 06:00N 39°34' E 002°38'0 0.0
2018-May-16 05:30N 39°34' E 002°38'0 0.0
2018-May-16 05:00N 39°34' E 002°38'0 0.0
2018-May-16 04:30N 39°34' E 002°38'0 0.0
2018-May-16 04:00N 39°34' E 002°38'0 0.0
2018-May-16 03:30N 39°34' E 002°38'0 0.0
2018-May-16 03:00N 39°34' E 002°38'0 0.0
2018-May-16 02:30N 39°34' E 002°38'0 0.0
2018-May-16 02:00N 39°34' E 002°38'0 0.0
2018-May-16 01:30N 39°34' E 002°38'0 0.0
2018-May-16 01:00N 39°34' E 002°38'0 0.0
2018-May-16 00:30N 39°34' E 002°38'0 0.0
2018-May-16 00:00N 39°34' E 002°38'0 0.0
2018-May-15 23:30N 39°34' E 002°38'0 0.0
2018-May-15 23:00N 39°34' E 002°38'0 0.0
2018-May-15 22:30N 39°34' E 002°38'0 0.0
2018-May-15 22:00N 39°34' E 002°38'0 0.0
2018-May-15 21:30N 39°34' E 002°38'0 0.0
2018-May-15 21:00N 39°34' E 002°38'0 0.0
2018-May-15 20:30N 39°34' E 002°38'0 0.0
2018-May-15 20:00N 39°34' E 002°38'0 0.0
2018-May-15 19:30N 39°34' E 002°38'0 0.0
2018-May-15 19:00N 39°34' E 002°38'0 0.0
2018-May-15 18:30N 39°34' E 002°38'0 0.0
2018-May-15 18:00N 39°34' E 002°38'0 0.0
2018-May-15 17:30N 39°34' E 002°38'0 0.0
2018-May-15 17:00N 39°34' E 002°38'0 0.0
2018-May-15 16:30N 39°34' E 002°38'0 0.0
2018-May-15 16:00N 39°34' E 002°38'0 0.0
2018-May-15 15:30N 39°34' E 002°38'0 0.0
2018-May-15 15:00N 39°34' E 002°38'0 0.0
2018-May-15 14:30N 39°34' E 002°38'0 0.0
2018-May-15 14:00N 39°34' E 002°38'0 0.0
2018-May-15 13:30N 39°34' E 002°38'0 0.0
2018-May-15 13:00N 39°34' E 002°38'0 0.0
2018-May-15 12:30N 39°34' E 002°38'0 0.0
2018-May-15 12:00N 39°34' E 002°38'0 0.0
2018-May-15 11:30N 39°34' E 002°38'0 0.0
2018-May-15 11:00N 39°34' E 002°38'0 0.0
2018-May-15 10:30N 39°34' E 002°38'0 0.0
2018-May-15 10:00N 39°34' E 002°38'0 0.0
2018-May-15 09:30N 39°34' E 002°38'0 0.0
2018-May-15 09:00N 39°34' E 002°38'0 0.0
2018-May-15 08:30N 39°34' E 002°38'0 0.0
2018-May-15 08:00N 39°34' E 002°38'0 0.0
2018-May-15 07:30N 39°34' E 002°38'0 0.0
2018-May-15 07:00N 39°34' E 002°38'0 0.0
2018-May-15 06:30N 39°34' E 002°38'0 0.0
2018-May-15 06:00N 39°34' E 002°38'0 0.0
2018-May-15 05:30N 39°34' E 002°38'0 0.0
2018-May-15 05:00N 39°34' E 002°38'0 0.0
2018-May-15 04:30N 39°34' E 002°38'0 0.0
2018-May-15 03:57N 39°34' E 002°38'0 0.0
2018-May-15 03:30N 39°34' E 002°38'0 0.0
2018-May-15 03:00N 39°34' E 002°38'0 0.0
2018-May-15 02:30N 39°34' E 002°38'0 0.0
2018-May-15 02:00N 39°34' E 002°38'0 0.0
2018-May-15 01:29N 39°34' E 002°38'0 0.0
2018-May-15 00:59N 39°34' E 002°38'0 0.0
2018-May-15 00:26N 39°34' E 002°38'0 0.0
2018-May-14 23:59N 39°34' E 002°38'0 0.0
2018-May-14 23:29N 39°34' E 002°38'0 0.0
2018-May-14 22:59N 39°34' E 002°38'0 0.0
2018-May-14 22:29N 39°34' E 002°38'0 0.0
2018-May-14 21:59N 39°34' E 002°38'0 0.0
2018-May-14 21:29N 39°34' E 002°38'0 0.0
2018-May-14 20:59N 39°34' E 002°38'0 0.0
2018-May-14 20:29N 39°34' E 002°38'0 0.0
2018-May-14 19:59N 39°34' E 002°38'0 0.0
2018-May-14 19:29N 39°34' E 002°38'0 0.0
2018-May-14 18:56N 39°34' E 002°38'0 0.0
2018-May-14 18:29N 39°34' E 002°38'0 0.0
2018-May-14 17:59N 39°34' E 002°38'0 0.0
2018-May-14 17:29N 39°34' E 002°38'0 0.0
2018-May-14 16:59N 39°34' E 002°38'0 0.0
2018-May-14 16:29N 39°34' E 002°38'0 0.0
2018-May-14 15:59N 39°34' E 002°38'0 0.0
2018-May-14 15:29N 39°34' E 002°38'0 0.0
2018-May-14 14:59N 39°34' E 002°38'0 0.0
2018-May-14 14:29N 39°34' E 002°38'0 0.0
2018-May-14 13:56N 39°34' E 002°38'0 0.0
2018-May-14 13:29N 39°34' E 002°38'0 0.0
2018-May-14 12:59N 39°34' E 002°38'0 0.0
2018-May-14 12:29N 39°34' E 002°38'0 0.0
2018-May-14 11:53N 39°34' E 002°38'0 0.0
2018-May-14 11:29N 39°34' E 002°38'0 0.0
2018-May-14 10:59N 39°34' E 002°38'0 0.0
2018-May-14 10:29N 39°34' E 002°38'0 0.0
2018-May-14 09:59N 39°34' E 002°38'0 0.0
2018-May-14 09:29N 39°34' E 002°38'0 0.0
2018-May-14 08:59N 39°34' E 002°38'0 0.0
2018-May-14 08:29N 39°34' E 002°38'0 0.0
2018-May-14 07:59N 39°34' E 002°38'0 0.0
2018-May-14 07:29N 39°34' E 002°38'0 0.0
2018-May-14 06:59N 39°34' E 002°38'0 0.0
2018-May-14 06:29N 39°34' E 002°38'0 0.0
2018-May-14 05:59N 39°34' E 002°38'0 0.0
2018-May-14 05:29N 39°34' E 002°38'0 0.0
2018-May-14 04:59N 39°34' E 002°38'0 0.0
2018-May-14 04:29N 39°34' E 002°38'0 0.0
2018-May-14 03:59N 39°34' E 002°38'0 0.0
2018-May-14 03:29N 39°34' E 002°38'0 0.0
2018-May-14 02:59N 39°34' E 002°38'0 0.0
2018-May-14 02:26N 39°34' E 002°38'0 0.0
2018-May-14 01:50N 39°34' E 002°38'0 0.0
2018-May-14 01:29N 39°34' E 002°38'0 0.0
2018-May-14 00:59N 39°34' E 002°38'0 0.0
2018-May-14 00:26N 39°34' E 002°38'0 0.0
2018-May-13 23:59N 39°34' E 002°38'0 0.0
2018-May-13 23:29N 39°34' E 002°38'0 0.0
2018-May-13 22:59N 39°34' E 002°38'0 0.0
2018-May-13 22:29N 39°34' E 002°38'0 0.0
2018-May-13 21:59N 39°34' E 002°38'0 0.0
2018-May-13 21:29N 39°34' E 002°38'0 0.0
2018-May-13 20:59N 39°34' E 002°38'0 0.0
2018-May-13 20:29N 39°34' E 002°38'0 0.0
2018-May-13 19:59N 39°34' E 002°38'0 0.0
2018-May-13 19:23N 39°34' E 002°38'0 0.0
2018-May-13 18:59N 39°34' E 002°38'0 0.0
2018-May-13 18:29N 39°34' E 002°38'0 0.0
2018-May-13 17:59N 39°34' E 002°38'0 0.0
2018-May-13 17:29N 39°34' E 002°38'0 0.0
2018-May-13 16:59N 39°34' E 002°38'0 0.0
2018-May-13 16:29N 39°34' E 002°38'0 0.0
2018-May-13 15:59N 39°34' E 002°38'0 0.0
2018-May-13 15:29N 39°34' E 002°38'0 0.0
2018-May-13 14:59N 39°34' E 002°38'0 0.0
2018-May-13 14:29N 39°34' E 002°38'0 0.0
2018-May-13 13:59N 39°34' E 002°38'0 0.0
2018-May-13 13:29N 39°34' E 002°38'0 0.0
2018-May-13 12:59N 39°34' E 002°38'0 0.0
2018-May-13 12:29N 39°34' E 002°38'0 0.0
2018-May-13 11:59N 39°34' E 002°38'0 0.0
2018-May-13 11:29N 39°34' E 002°38'0 0.0
2018-May-13 10:59N 39°34' E 002°38'0 0.0
2018-May-13 10:29N 39°34' E 002°38'0 0.0
2018-May-13 09:59N 39°34' E 002°38'0 0.0
2018-May-13 09:29N 39°34' E 002°38'0 0.0
2018-May-13 08:59N 39°34' E 002°38'0 0.0
2018-May-13 08:29N 39°34' E 002°38'0 0.0
2018-May-13 07:59N 39°34' E 002°38'0 0.0
2018-May-13 07:29N 39°34' E 002°38'0 0.0
2018-May-13 06:56N 39°34' E 002°38'0 0.0
2018-May-13 06:29N 39°34' E 002°38'0 0.0
2018-May-13 05:59N 39°34' E 002°38'0 0.0
2018-May-13 05:29N 39°34' E 002°38'0 0.0
2018-May-13 04:59N 39°34' E 002°38'0 0.0
2018-May-13 04:29N 39°34' E 002°38'0 0.0
2018-May-13 03:59N 39°34' E 002°38'0 0.0
2018-May-13 03:29N 39°34' E 002°38'0 0.0
2018-May-13 02:59N 39°34' E 002°38'0 0.0
2018-May-13 02:29N 39°34' E 002°38'0 0.0
2018-May-13 01:59N 39°34' E 002°38'0 0.0
2018-May-13 01:29N 39°34' E 002°38'0 0.0
2018-May-13 00:59N 39°34' E 002°38'0 0.0
2018-May-13 00:29N 39°34' E 002°38'0 0.0
2018-May-12 23:59N 39°34' E 002°38'0 0.0
2018-May-12 23:29N 39°34' E 002°38'0 0.0
2018-May-12 22:59N 39°34' E 002°38'0 0.0
2018-May-12 22:29N 39°34' E 002°38'0 0.0
2018-May-12 21:56N 39°34' E 002°38'0 0.0
2018-May-12 21:29N 39°34' E 002°38'0 0.0
2018-May-12 20:59N 39°34' E 002°38'0 0.0
2018-May-12 20:26N 39°34' E 002°38'0 0.0
2018-May-12 19:56N 39°34' E 002°38'  
Track history (hours):
 
Tides and Currents Weather Stations Pressure Air Temp Water Temp Dewpoint Dewpoint Depression Visibility Wind Speed Wind Dir Waves Ship Positions

Bayesian

Last reported at 2018-May-22 19:30 UTC. Time now 2018-May-22 19:52 UTC.
Position N 39°06' E 003°01'.

Length 56 m; draft 4 m.

Type: Pleasure craft. MMSI: 235108471.

Date/timePositionNaut miles runAvg speedWind from/ knotsBaromVisibWave heightAir tempDewpointWater temp
2018-May-22 19:30N 39°06' E 003°01'5 9.6
2018-May-22 19:00N 39°06' E 002°55'5 9.1
2018-May-22 18:30N 39°09' E 002°51'5 9.8
2018-May-22 18:00N 39°14' E 002°48'5 9.9
2018-May-22 17:30N 39°18' E 002°45'5 9.7
2018-May-22 17:00N 39°22' E 002°42'5 9.7
2018-May-22 16:30N 39°27' E 002°39'5 9.4
2018-May-22 15:58N 39°31' E 002°37'1 1.1
2018-May-22 15:30N 39°31' E 002°36'1 2.3
2018-May-22 14:59N 39°32' E 002°37'2 3.6
2018-May-22 14:30N 39°33' E 002°39'1 1.7
2018-May-22 14:00N 39°34' E 002°38'0 0.0
2018-May-22 13:30N 39°34' E 002°38'0 0.0
2018-May-22 13:00N 39°34' E 002°38'0 0.0
2018-May-22 12:30N 39°34' E 002°38'0 0.0
2018-May-22 12:00N 39°34' E 002°38'0 0.0
2018-May-22 11:30N 39°34' E 002°38'0 0.0
2018-May-22 10:54N 39°34' E 002°38'0 0.0
2018-May-22 10:30N 39°34' E 002°38'0 0.0
2018-May-22 10:00N 39°34' E 002°38'0 0.0
2018-May-22 09:30N 39°34' E 002°38'0 0.0
2018-May-22 09:00N 39°34' E 002°38'0 0.0
2018-May-22 08:30N 39°34' E 002°38'0 0.0
2018-May-22 08:00N 39°34' E 002°38'0 0.0
2018-May-22 07:30N 39°34' E 002°38'0 0.0
2018-May-22 07:00N 39°34' E 002°38'0 0.0
2018-May-22 06:30N 39°34' E 002°38'0 0.0
2018-May-22 06:00N 39°34' E 002°38'0 0.0
2018-May-22 05:30N 39°34' E 002°38'0 0.0
2018-May-22 05:00N 39°34' E 002°38'0 0.0
2018-May-22 04:30N 39°34' E 002°38'0 0.0
2018-May-22 04:00N 39°34' E 002°38'0 0.0
2018-May-22 03:30N 39°34' E 002°38'0 0.0
2018-May-22 03:00N 39°34' E 002°38'0 0.0
2018-May-22 02:30N 39°34' E 002°38'0 0.0
2018-May-22 02:00N 39°34' E 002°38'0 0.0
2018-May-22 01:30N 39°34' E 002°38'0 0.0
2018-May-22 01:00N 39°34' E 002°38'0 0.0
2018-May-22 00:30N 39°34' E 002°38'0 0.0
2018-May-22 00:00N 39°34' E 002°38'0 0.0
2018-May-21 23:30N 39°34' E 002°38'0 0.0
2018-May-21 23:00N 39°34' E 002°38'0 0.0
2018-May-21 22:30N 39°34' E 002°38'0 0.0
2018-May-21 22:00N 39°34' E 002°38'0 0.0
2018-May-21 21:30N 39°34' E 002°38'0 0.0
2018-May-21 21:00N 39°34' E 002°38'0 0.0
2018-May-21 20:30N 39°34' E 002°38'0 0.0
2018-May-21 20:00N 39°34' E 002°38'0 0.0
2018-May-21 19:30N 39°34' E 002°38'0 0.0
2018-May-21 19:00N 39°34' E 002°38'0 0.0
2018-May-21 18:30N 39°34' E 002°38'0 0.0
2018-May-21 18:00N 39°34' E 002°38'0 0.0
2018-May-21 17:30N 39°34' E 002°38'0 0.0
2018-May-21 17:00N 39°34' E 002°38'0 0.0
2018-May-21 16:30N 39°34' E 002°38'0 0.0
2018-May-21 16:00N 39°34' E 002°38'0 0.0
2018-May-21 15:30N 39°34' E 002°38'0 0.0
2018-May-21 15:00N 39°34' E 002°38'0 0.0
2018-May-21 14:30N 39°34' E 002°38'0 0.0
2018-May-21 14:00N 39°34' E 002°38'0 0.0
2018-May-21 13:30N 39°34' E 002°38'0 0.0
2018-May-21 13:00N 39°34' E 002°38'0 0.0
2018-May-21 12:30N 39°34' E 002°38'0 0.0
2018-May-21 12:00N 39°34' E 002°38'0 0.0
2018-May-21 11:30N 39°34' E 002°38'0 0.0
2018-May-21 11:00N 39°34' E 002°38'0 0.0
2018-May-21 10:30N 39°34' E 002°38'0 0.0
2018-May-21 10:00N 39°34' E 002°38'0 0.0
2018-May-21 09:30N 39°34' E 002°38'0 0.0
2018-May-21 09:00N 39°34' E 002°38'0 0.0
2018-May-21 08:30N 39°34' E 002°38'0 0.0
2018-May-21 08:00N 39°34' E 002°38'0 0.0
2018-May-21 07:30N 39°34' E 002°38'0 0.0
2018-May-21 07:00N 39°34' E 002°38'0 0.0
2018-May-21 06:30N 39°34' E 002°38'0 0.0
2018-May-21 06:00N 39°34' E 002°38'0 0.0
2018-May-21 05:30N 39°34' E 002°38'0 0.0
2018-May-21 05:00N 39°34' E 002°38'0 0.0
2018-May-21 04:30N 39°34' E 002°38'0 0.0
2018-May-21 04:00N 39°34' E 002°38'0 0.0
2018-May-21 03:30N 39°34' E 002°38'0 0.0
2018-May-21 03:00N 39°34' E 002°38'0 0.0
2018-May-21 02:30N 39°34' E 002°38'0 0.0
2018-May-21 02:00N 39°34' E 002°38'0 0.0
2018-May-21 01:30N 39°34' E 002°38'0 0.0
2018-May-21 01:00N 39°34' E 002°38'0 0.0
2018-May-21 00:30N 39°34' E 002°38'0 0.0
2018-May-21 00:00N 39°34' E 002°38'0 0.0
2018-May-20 23:30N 39°34' E 002°38'0 0.0
2018-May-20 23:00N 39°34' E 002°38'0 0.0
2018-May-20 22:30N 39°34' E 002°38'0 0.0
2018-May-20 22:00N 39°34' E 002°38'0 0.0
2018-May-20 21:30N 39°34' E 002°38'0 0.0
2018-May-20 21:00N 39°34' E 002°38'0 0.0
2018-May-20 20:30N 39°34' E 002°38'0 0.0
2018-May-20 20:00N 39°34' E 002°38'0 0.0
2018-May-20 19:30N 39°34' E 002°38'0 0.0
2018-May-20 19:00N 39°34' E 002°38'0 0.0
2018-May-20 18:30N 39°34' E 002°38'0 0.0
2018-May-20 18:00N 39°34' E 002°38'0 0.0
2018-May-20 17:30N 39°34' E 002°38'0 0.0
2018-May-20 17:00N 39°34' E 002°38'0 0.0
2018-May-20 16:30N 39°34' E 002°38'0 0.0
2018-May-20 16:00N 39°34' E 002°38'0 0.0
2018-May-20 15:30N 39°34' E 002°38'0 0.0
2018-May-20 15:00N 39°34' E 002°38'0 0.0
2018-May-20 14:30N 39°34' E 002°38'0 0.0
2018-May-20 14:00N 39°34' E 002°38'0 0.0
2018-May-20 13:30N 39°34' E 002°38'0 0.0
2018-May-20 13:00N 39°34' E 002°38'0 0.0
2018-May-20 12:30N 39°34' E 002°38'0 0.0
2018-May-20 12:00N 39°34' E 002°38'0 0.0
2018-May-20 11:30N 39°34' E 002°38'0 0.0
2018-May-20 11:00N 39°34' E 002°38'0 0.0
2018-May-20 10:30N 39°34' E 002°38'0 0.0
2018-May-20 10:00N 39°34' E 002°38'0 0.0
2018-May-20 09:30N 39°34' E 002°38'0 0.0
2018-May-20 09:00N 39°34' E 002°38'0 0.0
2018-May-20 08:30N 39°34' E 002°38'0 0.0
2018-May-20 08:00N 39°34' E 002°38'0 0.0
2018-May-20 07:30N 39°34' E 002°38'0 0.0
2018-May-20 07:00N 39°34' E 002°38'0 0.0
2018-May-20 06:27N 39°34' E 002°38'0 0.0
2018-May-20 06:00N 39°34' E 002°38'0 0.0
2018-May-20 05:30N 39°34' E 002°38'0 0.0
2018-May-20 05:00N 39°34' E 002°38'0 0.0
2018-May-20 04:30N 39°34' E 002°38'0 0.0
2018-May-20 04:00N 39°34' E 002°38'0 0.0
2018-May-20 03:30N 39°34' E 002°38'0 0.0
2018-May-20 03:00N 39°34' E 002°38'0 0.0
2018-May-20 02:30N 39°34' E 002°38'0 0.0
2018-May-20 02:00N 39°34' E 002°38'0 0.0
2018-May-20 01:30N 39°34' E 002°38'0 0.0
2018-May-20 01:00N 39°34' E 002°38'0 0.0
2018-May-20 00:30N 39°34' E 002°38'0 0.0
2018-May-20 00:00N 39°34' E 002°38'0 0.0
2018-May-19 23:30N 39°34' E 002°38'0 0.0
2018-May-19 23:00N 39°34' E 002°38'0 0.0
2018-May-19 22:30N 39°34' E 002°38'0 0.0
2018-May-19 22:00N 39°34' E 002°38'0 0.0
2018-May-19 21:30N 39°34' E 002°38'0 0.0
2018-May-19 21:00N 39°34' E 002°38'0 0.0
2018-May-19 20:30N 39°34' E 002°38'0 0.0
2018-May-19 20:00N 39°34' E 002°38'0 0.0
2018-May-19 19:30N 39°34' E 002°38'0 0.0
2018-May-19 19:00N 39°34' E 002°38'0 0.0
2018-May-19 18:30N 39°34' E 002°38'0 0.0
2018-May-19 18:00N 39°34' E 002°38'0 0.0
2018-May-19 17:30N 39°34' E 002°38'0 0.0
2018-May-19 17:00N 39°34' E 002°38'0 0.0
2018-May-19 16:30N 39°34' E 002°38'0 0.0
2018-May-19 16:00N 39°34' E 002°38'0 0.0
2018-May-19 15:30N 39°34' E 002°38'0 0.0
2018-May-19 15:00N 39°34' E 002°38'0 0.0
2018-May-19 14:30N 39°34' E 002°38'0 0.0
2018-May-19 14:00N 39°34' E 002°38'0 0.0
2018-May-19 13:30N 39°34' E 002°38'0 0.0
2018-May-19 13:00N 39°34' E 002°38'0 0.0
2018-May-19 12:30N 39°34' E 002°38'0 0.0
2018-May-19 12:00N 39°34' E 002°38'0 0.0
2018-May-19 11:30N 39°34' E 002°38'0 0.0
2018-May-19 11:00N 39°34' E 002°38'0 0.0
2018-May-19 10:30N 39°34' E 002°38'0 0.0
2018-May-19 10:00N 39°34' E 002°38'0 0.0
2018-May-19 09:30N 39°34' E 002°38'0 0.0
2018-May-19 09:00N 39°34' E 002°38'0 0.0
2018-May-19 08:30N 39°34' E 002°38'0 0.0
2018-May-19 08:00N 39°34' E 002°38'0 0.0
2018-May-19 07:30N 39°34' E 002°38'0 0.0
2018-May-19 07:00N 39°34' E 002°38'0 0.0
2018-May-19 06:30N 39°34' E 002°38'0 0.0
2018-May-19 05:57N 39°34' E 002°38'0 0.0
2018-May-19 05:30N 39°34' E 002°38'0 0.0
2018-May-19 04:57N 39°34' E 002°38'0 0.0
2018-May-19 04:30N 39°34' E 002°38'0 0.0
2018-May-19 04:00N 39°34' E 002°38'0 0.0
2018-May-19 03:30N 39°34' E 002°38'0 0.0
2018-May-19 03:00N 39°34' E 002°38'0 0.0
2018-May-19 02:30N 39°34' E 002°38'0 0.0
2018-May-19 02:00N 39°34' E 002°38'0 0.0
2018-May-19 01:30N 39°34' E 002°38'0 0.0
2018-May-19 01:00N 39°34' E 002°38'0 0.0
2018-May-19 00:30N 39°34' E 002°38'0 0.0
2018-May-19 00:00N 39°34' E 002°38'0 0.0
2018-May-18 23:30N 39°34' E 002°38'0 0.0
2018-May-18 23:00N 39°34' E 002°38'0 0.0
2018-May-18 22:30N 39°34' E 002°38'0 0.0
2018-May-18 22:00N 39°34' E 002°38'0 0.0
2018-May-18 21:30N 39°34' E 002°38'0 0.0
2018-May-18 21:00N 39°34' E 002°38'0 0.0
2018-May-18 20:30N 39°34' E 002°38'0 0.0
2018-May-18 20:00N 39°34' E 002°38'0 0.0
2018-May-18 19:30N 39°34' E 002°38'0 0.0
2018-May-18 19:00N 39°34' E 002°38'0 0.0
2018-May-18 18:30N 39°34' E 002°38'0 0.0
2018-May-18 18:00N 39°34' E 002°38'0 0.0
2018-May-18 17:30N 39°34' E 002°38'0 0.0
2018-May-18 17:00N 39°34' E 002°38'0 0.0
2018-May-18 16:30N 39°34' E 002°38'0 0.0
2018-May-18 16:00N 39°34' E 002°38'0 0.0
2018-May-18 15:30N 39°34' E 002°38'0 0.0
2018-May-18 15:00N 39°34' E 002°38'0 0.0
2018-May-18 14:30N 39°34' E 002°38'0 0.0
2018-May-18 14:00N 39°34' E 002°38'0 0.0
2018-May-18 13:30N 39°34' E 002°38'0 0.0
2018-May-18 13:00N 39°34' E 002°38'0 0.0
2018-May-18 12:27N 39°34' E 002°38'0 0.0
2018-May-18 12:00N 39°34' E 002°38'0 0.0
2018-May-18 11:30N 39°34' E 002°38'0 0.0
2018-May-18 11:00N 39°34' E 002°38'0 0.0
2018-May-18 10:30N 39°34' E 002°38'0 0.0
2018-May-18 10:00N 39°34' E 002°38'0 0.0
2018-May-18 09:30N 39°34' E 002°38'0 0.0
2018-May-18 09:00N 39°34' E 002°38'0 0.0
2018-May-18 08:30N 39°34' E 002°38'0 0.0
2018-May-18 08:00N 39°34' E 002°38'0 0.0
2018-May-18 07:30N 39°34' E 002°38'0 0.0
2018-May-18 07:00N 39°34' E 002°38'0 0.0
2018-May-18 06:30N 39°34' E 002°38'0 0.0
2018-May-18 06:00N 39°34' E 002°38'0 0.0
2018-May-18 05:30N 39°34' E 002°38'0 0.0
2018-May-18 05:00N 39°34' E 002°38'0 0.0
2018-May-18 04:30N 39°34' E 002°38'0 0.0
2018-May-18 04:00N 39°34' E 002°38'0 0.0
2018-May-18 03:30N 39°34' E 002°38'0 0.0
2018-May-18 03:00N 39°34' E 002°38'0 0.0
2018-May-18 02:30N 39°34' E 002°38'0 0.0
2018-May-18 02:00N 39°34' E 002°38'0 0.0
2018-May-18 01:30N 39°34' E 002°38'0 0.0
2018-May-18 01:00N 39°34' E 002°38'0 0.0
2018-May-18 00:30N 39°34' E 002°38'0 0.0
2018-May-18 00:00N 39°34' E 002°38'0 0.0
2018-May-17 23:30N 39°34' E 002°38'0 0.0
2018-May-17 23:00N 39°34' E 002°38'0 0.0
2018-May-17 22:30N 39°34' E 002°38'0 0.0
2018-May-17 22:00N 39°34' E 002°38'0 0.0
2018-May-17 21:30N 39°34' E 002°38'0 0.0
2018-May-17 21:00N 39°34' E 002°38'0 0.0
2018-May-17 20:27N 39°34' E 002°38'0 0.0
2018-May-17 20:00N 39°34' E 002°38'0 0.0
2018-May-17 19:30N 39°34' E 002°38'0 0.0
2018-May-17 19:00N 39°34' E 002°38'0 0.0
2018-May-17 18:30N 39°34' E 002°38'0 0.0
2018-May-17 18:00N 39°34' E 002°38'0 0.0
2018-May-17 17:30N 39°34' E 002°38'0 0.0
2018-May-17 17:00N 39°34' E 002°38'0 0.0
2018-May-17 16:27N 39°34' E 002°38'0 0.0
2018-May-17 16:00N 39°34' E 002°38'0 0.0
2018-May-17 15:27N 39°34' E 002°38'0 0.0
2018-May-17 15:00N 39°34' E 002°38'0 0.0
2018-May-17 14:30N 39°34' E 002°38'0 0.0
2018-May-17 14:00N 39°34' E 002°38'0 0.0
2018-May-17 13:30N 39°34' E 002°38'0 0.0
2018-May-17 13:00N 39°34' E 002°38'0 0.0
2018-May-17 12:30N 39°34' E 002°38'0 0.0
2018-May-17 12:00N 39°34' E 002°38'0 0.0
2018-May-17 11:30N 39°34' E 002°38'0 0.0
2018-May-17 11:00N 39°34' E 002°38'0 0.0
2018-May-17 10:27N 39°34' E 002°38'0 0.0
2018-May-17 10:00N 39°34' E 002°38'0 0.0
2018-May-17 09:30N 39°34' E 002°38'0 0.0
2018-May-17 09:00N 39°34' E 002°38'0 0.0
2018-May-17 08:30N 39°34' E 002°38'0 0.0
2018-May-17 08:00N 39°34' E 002°38'0 0.0
2018-May-17 07:30N 39°34' E 002°38'0 0.0
2018-May-17 07:00N 39°34' E 002°38'0 0.0
2018-May-17 06:30N 39°34' E 002°38'0 0.0
2018-May-17 06:00N 39°34' E 002°38'0 0.0
2018-May-17 05:30N 39°34' E 002°38'0 0.0
2018-May-17 05:00N 39°34' E 002°38'0 0.0
2018-May-17 04:30N 39°34' E 002°38'0 0.0
2018-May-17 04:00N 39°34' E 002°38'0 0.0
2018-May-17 03:27N 39°34' E 002°38'0 0.0
2018-May-17 03:00N 39°34' E 002°38'0 0.0
2018-May-17 02:30N 39°34' E 002°38'0 0.0
2018-May-17 02:00N 39°34' E 002°38'0 0.0
2018-May-17 01:30N 39°34' E 002°38'0 0.0
2018-May-17 01:00N 39°34' E 002°38'0 0.0
2018-May-17 00:27N 39°34' E 002°38'0 0.0
2018-May-17 00:00N 39°34' E 002°38'0 0.0
2018-May-16 23:30N 39°34' E 002°38'0 0.0
2018-May-16 23:00N 39°34' E 002°38'0 0.0
2018-May-16 22:30N 39°34' E 002°38'0 0.0
2018-May-16 22:00N 39°34' E 002°38'0 0.0
2018-May-16 21:30N 39°34' E 002°38'0 0.0
2018-May-16 21:00N 39°34' E 002°38'0 0.0
2018-May-16 20:30N 39°34' E 002°38'0 0.0
2018-May-16 19:51N 39°34' E 002°38'0 0.0
2018-May-16 19:30N 39°34' E 002°38'0 0.0
2018-May-16 19:00N 39°34' E 002°38'0 0.0
2018-May-16 18:30N 39°34' E 002°38'0 0.0
2018-May-16 18:00N 39°34' E 002°38'0 0.0
2018-May-16 17:30N 39°34' E 002°38'0 0.0
2018-May-16 17:00N 39°34' E 002°38'0 0.0
2018-May-16 16:30N 39°34' E 002°38'0 0.0
2018-May-16 15:57N 39°34' E 002°38'0 0.0
2018-May-16 15:30N 39°34' E 002°38'0 0.0
2018-May-16 15:00N 39°34' E 002°38'0 0.0
2018-May-16 14:30N 39°34' E 002°38'0 0.0
2018-May-16 14:00N 39°34' E 002°38'0 0.0
2018-May-16 13:30N 39°34' E 002°38'0 0.0
2018-May-16 13:00N 39°34' E 002°38'0 0.0
2018-May-16 12:30N 39°34' E 002°38'0 0.0
2018-May-16 12:00N 39°34' E 002°38'0 0.0
2018-May-16 11:30N 39°34' E 002°38'0 0.0
2018-May-16 11:00N 39°34' E 002°38'0 0.0
2018-May-16 10:30N 39°34' E 002°38'0 0.0
2018-May-16 10:00N 39°34' E 002°38'0 0.0
2018-May-16 09:30N 39°34' E 002°38'0 0.0
2018-May-16 09:00N 39°34' E 002°38'0 0.0
2018-May-16 08:30N 39°34' E 002°38'0 0.0
2018-May-16 08:00N 39°34' E 002°38'0 0.0
2018-May-16 07:30N 39°34' E 002°38'0 0.0
2018-May-16 07:00N 39°34' E 002°38'0 0.0
2018-May-16 06:30N 39°34' E 002°38'0 0.0
2018-May-16 06:00N 39°34' E 002°38'0 0.0
2018-May-16 05:30N 39°34' E 002°38'0 0.0
2018-May-16 05:00N 39°34' E 002°38'0 0.0
2018-May-16 04:30N 39°34' E 002°38'0 0.0
2018-May-16 04:00N 39°34' E 002°38'0 0.0
2018-May-16 03:30N 39°34' E 002°38'0 0.0
2018-May-16 03:00N 39°34' E 002°38'0 0.0
2018-May-16 02:30N 39°34' E 002°38'0 0.0
2018-May-16 02:00N 39°34' E 002°38'0 0.0
2018-May-16 01:30N 39°34' E 002°38'0 0.0
2018-May-16 01:00N 39°34' E 002°38'0 0.0
2018-May-16 00:30N 39°34' E 002°38'0 0.0
2018-May-16 00:00N 39°34' E 002°38'0 0.0
2018-May-15 23:30N 39°34' E 002°38'0 0.0
2018-May-15 23:00N 39°34' E 002°38'0 0.0
2018-May-15 22:30N 39°34' E 002°38'0 0.0
2018-May-15 22:00N 39°34' E 002°38'0 0.0
2018-May-15 21:30N 39°34' E 002°38'0 0.0
2018-May-15 21:00N 39°34' E 002°38'0 0.0
2018-May-15 20:30N 39°34' E 002°38'0 0.0
2018-May-15 20:00N 39°34' E 002°38'0 0.0
2018-May-15 19:30N 39°34' E 002°38'0 0.0
2018-May-15 19:00N 39°34' E 002°38'0 0.0
2018-May-15 18:30N 39°34' E 002°38'0 0.0
2018-May-15 18:00N 39°34' E 002°38'0 0.0
2018-May-15 17:30N 39°34' E 002°38'0 0.0
2018-May-15 17:00N 39°34' E 002°38'0 0.0
2018-May-15 16:30N 39°34' E 002°38'0 0.0
2018-May-15 16:00N 39°34' E 002°38'0 0.0
2018-May-15 15:30N 39°34' E 002°38'0 0.0
2018-May-15 15:00N 39°34' E 002°38'0 0.0
2018-May-15 14:30N 39°34' E 002°38'0 0.0
2018-May-15 14:00N 39°34' E 002°38'0 0.0
2018-May-15 13:30N 39°34' E 002°38'0 0.0
2018-May-15 13:00N 39°34' E 002°38'0 0.0
2018-May-15 12:30N 39°34' E 002°38'0 0.0
2018-May-15 12:00N 39°34' E 002°38'0 0.0
2018-May-15 11:30N 39°34' E 002°38'0 0.0
2018-May-15 11:00N 39°34' E 002°38'0 0.0
2018-May-15 10:30N 39°34' E 002°38'0 0.0
2018-May-15 10:00N 39°34' E 002°38'0 0.0
2018-May-15 09:30N 39°34' E 002°38'0 0.0
2018-May-15 09:00N 39°34' E 002°38'0 0.0
2018-May-15 08:30N 39°34' E 002°38'0 0.0
2018-May-15 08:00N 39°34' E 002°38'0 0.0
2018-May-15 07:30N 39°34' E 002°38'0 0.0
2018-May-15 07:00N 39°34' E 002°38'0 0.0
2018-May-15 06:30N 39°34' E 002°38'0 0.0
2018-May-15 06:00N 39°34' E 002°38'0 0.0
2018-May-15 05:30N 39°34' E 002°38'0 0.0
2018-May-15 05:00N 39°34' E 002°38'0 0.0
2018-May-15 04:30N 39°34' E 002°38'0 0.0
2018-May-15 03:57N 39°34' E 002°38'0 0.0
2018-May-15 03:30N 39°34' E 002°38'0 0.0
2018-May-15 03:00N 39°34' E 002°38'0 0.0
2018-May-15 02:30N 39°34' E 002°38'0 0.0
2018-May-15 02:00N 39°34' E 002°38'0 0.0
2018-May-15 01:29N 39°34' E 002°38'0 0.0
2018-May-15 00:59N 39°34' E 002°38'0 0.0
2018-May-15 00:26N 39°34' E 002°38'0 0.0
2018-May-14 23:59N 39°34' E 002°38'0 0.0
2018-May-14 23:29N 39°34' E 002°38'0 0.0
2018-May-14 22:59N 39°34' E 002°38'0 0.0
2018-May-14 22:29N 39°34' E 002°38'0 0.0
2018-May-14 21:59N 39°34' E 002°38'0 0.0
2018-May-14 21:29N 39°34' E 002°38'0 0.0
2018-May-14 20:59N 39°34' E 002°38'0 0.0
2018-May-14 20:29N 39°34' E 002°38'0 0.0
2018-May-14 19:59N 39°34' E 002°38'0 0.0
2018-May-14 19:29N 39°34' E 002°38'0 0.0
2018-May-14 18:56N 39°34' E 002°38'0 0.0
2018-May-14 18:29N 39°34' E 002°38'0 0.0
2018-May-14 17:59N 39°34' E 002°38'0 0.0
2018-May-14 17:29N 39°34' E 002°38'0 0.0
2018-May-14 16:59N 39°34' E 002°38'0 0.0
2018-May-14 16:29N 39°34' E 002°38'0 0.0
2018-May-14 15:59N 39°34' E 002°38'0 0.0
2018-May-14 15:29N 39°34' E 002°38'0 0.0
2018-May-14 14:59N 39°34' E 002°38'0 0.0
2018-May-14 14:29N 39°34' E 002°38'0 0.0
2018-May-14 13:56N 39°34' E 002°38'0 0.0
2018-May-14 13:29N 39°34' E 002°38'0 0.0
2018-May-14 12:59N 39°34' E 002°38'0 0.0
2018-May-14 12:29N 39°34' E 002°38'0 0.0
2018-May-14 11:53N 39°34' E 002°38'0 0.0
2018-May-14 11:29N 39°34' E 002°38'0 0.0
2018-May-14 10:59N 39°34' E 002°38'0 0.0
2018-May-14 10:29N 39°34' E 002°38'0 0.0
2018-May-14 09:59N 39°34' E 002°38'0 0.0
2018-May-14 09:29N 39°34' E 002°38'0 0.0
2018-May-14 08:59N 39°34' E 002°38'0 0.0
2018-May-14 08:29N 39°34' E 002°38'0 0.0
2018-May-14 07:59N 39°34' E 002°38'0 0.0
2018-May-14 07:29N 39°34' E 002°38'0 0.0
2018-May-14 06:59N 39°34' E 002°38'0 0.0
2018-May-14 06:29N 39°34' E 002°38'0 0.0
2018-May-14 05:59N 39°34' E 002°38'0 0.0
2018-May-14 05:29N 39°34' E 002°38'0 0.0
2018-May-14 04:59N 39°34' E 002°38'0 0.0
2018-May-14 04:29N 39°34' E 002°38'0 0.0
2018-May-14 03:59N 39°34' E 002°38'0 0.0
2018-May-14 03:29N 39°34' E 002°38'0 0.0
2018-May-14 02:59N 39°34' E 002°38'0 0.0
2018-May-14 02:26N 39°34' E 002°38'0 0.0
2018-May-14 01:50N 39°34' E 002°38'0 0.0
2018-May-14 01:29N 39°34' E 002°38'0 0.0
2018-May-14 00:59N 39°34' E 002°38'0 0.0
2018-May-14 00:26N 39°34' E 002°38'0 0.0
2018-May-13 23:59N 39°34' E 002°38'0 0.0
2018-May-13 23:29N 39°34' E 002°38'0 0.0
2018-May-13 22:59N 39°34' E 002°38'0 0.0
2018-May-13 22:29N 39°34' E 002°38'0 0.0
2018-May-13 21:59N 39°34' E 002°38'0 0.0
2018-May-13 21:29N 39°34' E 002°38'0 0.0
2018-May-13 20:59N 39°34' E 002°38'0 0.0
2018-May-13 20:29N 39°34' E 002°38'0 0.0
2018-May-13 19:59N 39°34' E 002°38'0 0.0
2018-May-13 19:23N 39°34' E 002°38'0 0.0
2018-May-13 18:59N 39°34' E 002°38'0 0.0
2018-May-13 18:29N 39°34' E 002°38'0 0.0
2018-May-13 17:59N 39°34' E 002°38'0 0.0
2018-May-13 17:29N 39°34' E 002°38'0 0.0
2018-May-13 16:59N 39°34' E 002°38'0 0.0
2018-May-13 16:29N 39°34' E 002°38'0 0.0
2018-May-13 15:59N 39°34' E 002°38'0 0.0
2018-May-13 15:29N 39°34' E 002°38'0 0.0
2018-May-13 14:59N 39°34' E 002°38'0 0.0
2018-May-13 14:29N 39°34' E 002°38'0 0.0
2018-May-13 13:59N 39°34' E 002°38'0 0.0
2018-May-13 13:29N 39°34' E 002°38'0 0.0
2018-May-13 12:59N 39°34' E 002°38'0 0.0
2018-May-13 12:29N 39°34' E 002°38'0 0.0
2018-May-13 11:59N 39°34' E 002°38'0 0.0
2018-May-13 11:29N 39°34' E 002°38'0 0.0
2018-May-13 10:59N 39°34' E 002°38'0 0.0
2018-May-13 10:29N 39°34' E 002°38'0 0.0
2018-May-13 09:59N 39°34' E 002°38'0 0.0
2018-May-13 09:29N 39°34' E 002°38'0 0.0
2018-May-13 08:59N 39°34' E 002°38'0 0.0
2018-May-13 08:29N 39°34' E 002°38'0 0.0
2018-May-13 07:59N 39°34' E 002°38'0 0.0
2018-May-13 07:29N 39°34' E 002°38'0 0.0
2018-May-13 06:56N 39°34' E 002°38'0 0.0
2018-May-13 06:29N 39°34' E 002°38'0 0.0
2018-May-13 05:59N 39°34' E 002°38'0 0.0
2018-May-13 05:29N 39°34' E 002°38'0 0.0
2018-May-13 04:59N 39°34' E 002°38'0 0.0
2018-May-13 04:29N 39°34' E 002°38'0 0.0
2018-May-13 03:59N 39°34' E 002°38'0 0.0
2018-May-13 03:29N 39°34' E 002°38'0 0.0
2018-May-13 02:59N 39°34' E 002°38'0 0.0
2018-May-13 02:29N 39°34' E 002°38'0 0.0
2018-May-13 01:59N 39°34' E 002°38'0 0.0
2018-May-13 01:29N 39°34' E 002°38'0 0.0
2018-May-13 00:59N 39°34' E 002°38'0 0.0
2018-May-13 00:29N 39°34' E 002°38'0 0.0
2018-May-12 23:59N 39°34' E 002°38'0 0.0
2018-May-12 23:29N 39°34' E 002°38'0 0.0
2018-May-12 22:59N 39°34' E 002°38'0 0.0
2018-May-12 22:29N 39°34' E 002°38'0 0.0
2018-May-12 21:56N 39°34' E 002°38'0 0.0
2018-May-12 21:29N 39°34' E 002°38'0 0.0
2018-May-12 20:59N 39°34' E 002°38'0 0.0
2018-May-12 20:26N 39°34' E 002°38'0 0.0
2018-May-12 19:56N 39°34' E 002°38'  

Dump ship's entire track history